• Join FlightAware (Why Join?)
  • Login
  • US Flag 
08:30AM EDT


 

Airport Tracker/Info


-or-


 

Live Flight TrackerFlight Track Log ✈ AWI3704 ✈ 18-May-2013 ✈ KALB - KPHL

Flight Track Log - Related Links

Times and Time Zones

All times are in EDT time to prevent confusion due to time zone crossing. See the AWI3704 flight status page for this flight to view local times or setup timezone preferences in your user account.

Time Position Orientation Groundspeed Altitude Reporting Facility
EDT Latitude Longitude Course Direction KTS MPH feet Rate Location/Type
12:15PM 42.7256 -73.8053 220° Southwest 161 185 1,300  Level Boston Center
12:16PM 42.6986 -73.8044 179° South 180 207 2,000 1,620 Climbing Boston Center
12:17PM 42.6833 -73.8664 251° West 258 297 3,600 2,340 Climbing Boston Center
12:18PM 42.7334 -74.1641 270° West  Level FlightAware Approximate
12:19PM 42.7333 -74.2855 270° West  Level FlightAware Approximate
12:19PM 42.7075 -74.0703 279° West 275 316 9,300  Level Boston Center
12:20PM 42.6790 -74.3758 220° Southwest  Level FlightAware Approximate
12:20PM 42.6606 -74.1539 233° Southwest 261 300 11,600  Level Boston Center
12:21PM 42.6103 -74.4530 220° Southwest  Level FlightAware Approximate
12:21PM 42.6028 -74.2539 232° Southwest 300 345 13,900  Level Boston Center
12:22PM 42.5642 -74.3147 229° Southwest 313 360 15,900 1,020 Climbing Boston Center
12:23PM 42.4933 -74.4364 232° Southwest 320 368 16,000  Climbing Boston Center
12:25PM 42.3878 -74.6114 231° Southwest 328 377 16,000  Level New York Center
12:26PM 42.3306 -74.7061 231° Southwest 334 384 16,000  Level New York Center
12:27PM 42.2733 -74.8008 231° Southwest 334 384 16,000  Level New York Center
12:28PM 42.2161 -74.8953 231° Southwest 334 384 16,000  Level New York Center
12:29PM 42.1400 -74.9883 222° Southwest 340 391 16,000  Level New York Center
12:30PM 42.0603 -75.0586 213° Southwest 340 391 16,000  Level New York Center
12:31PM 41.9789 -75.1258 212° Southwest 355 409 16,000  Level New York Center
12:32PM 41.9039 -75.1850 210° Southwest 355 409 16,000  Level New York Center
12:33PM 41.8244 -75.2494 211° Southwest 347 399 16,000  Level New York Center
12:34PM 41.7342 -75.3211 211° Southwest 347 399 16,000 -120 Level New York Center
12:35PM 41.6547 -75.3850 211° Southwest 353 406 15,800 -840 Descending New York Center
12:36PM 41.5772 -75.4492 212° Southwest 353 406 14,300 -1,500 Descending New York Center
12:37PM 41.5106 -75.5025 211° Southwest 331 381 12,900 -1,200 Descending New York Center
12:38PM 41.4286 -75.5689 211° Southwest 323 372 12,000 -480 Descending New York Center
12:39PM 41.3556 -75.6244 210° Southwest 318 366 12,000  Level New York Center
12:40PM 41.2783 -75.6822 209° Southwest 318 366 12,000  Level New York Center
12:41PM 41.1925 -75.6897 184° South 311 358 12,000  Level New York Center
12:42PM 41.1114 -75.6867 178° South 324 373 12,000  Level New York Center
12:43PM 41.0239 -75.6858 180° South 324 373 12,000  Level New York Center
12:44PM 40.9258 -75.6869 180° South 324 373 12,000  Level New York Center
12:45PM 40.8489 -75.6869 180° South 324 373 12,000  Level New York Center
12:46PM 40.7622 -75.6669 170° South 324 373 12,000  Level New York Center
12:47PM 40.6731 -75.6033 152° Southeast 324 373 12,000 -180 Level New York Center
12:48PM 40.5944 -75.5403 149° Southeast 331 381 11,700 -960 Descending New York Center
12:49PM 40.5175 -75.4831 151° Southeast 325 374 10,100 -900 Descending New York Center
12:50PM 40.4528 -75.4350 151° Southeast 307 353 10,000 -60 Descending New York Center
12:51PM 40.3692 -75.3911 158° South 299 344 10,000 -720 Level New York Center
12:52PM 40.2933 -75.4078 190° South 271 312 8,600 -1,500 Descending New York Center
12:53PM 40.2217 -75.4275 192° South 271 312 7,100 -1,320 Descending New York Center
12:54PM 40.1458 -75.4497 193° South 282 325 6,000 -600 Descending New York Center
12:55PM 40.0781 -75.4722 194° South 265 305 6,000  Level New York Center
12:56PM 40.0128 -75.4947 195° South 260 299 6,000  Level New York Center
12:57PM 39.9558 -75.5100 192° South 223 257 6,000  Level New York Center
12:58PM 39.9092 -75.5283 197° South 207 238 6,000 -120 Level New York Center
12:59PM 39.8878 -75.5947 247° West 175 201 5,800 -780 Descending New York Center
01:00PM 39.8769 -75.6561 257° West 187 215 4,500 -900 Descending New York Center
01:01PM 39.8289 -75.6528 177° South 134 154 4,000 -180 Descending New York Center
01:02PM 39.8056 -75.6161 130° Southeast 134 154 4,200  Climbing New York Center
01:03PM 39.8000 -75.5500 96° East 177 204 4,000 -300 Descending Philadelphia TRACON
01:04PM 39.8167 -75.5000 67° East 181 208 3,700 -780 Descending Philadelphia TRACON
01:05PM 39.8333 -75.4333 72° East 181 208 2,600 -1,260 Descending Philadelphia TRACON